Time;durP1;ratioP1;P1;durP2;ratioP2;P2;SDS_P1;SDS_P2;PMS_P1;PMS_P2;Temp;Humidity;BMP_temperature;BMP_pressure;BME280_temperature;BME280_humidity;BME280_pressure;Samples;Min_cycle;Max_cycle;Signal;HPM_P1;HPM_P2
2022/07/23 00:00:20;;;;;;;10.43;7.27;;;16.20;99.90;;;;;;5052587;28;20504;-61
2022/07/23 00:02:48;;;;;;;8.80;7.30;;;16.20;99.90;;;;;;5052550;28;20495;-60
2022/07/23 00:05:15;;;;;;;12.03;8.27;;;16.20;99.90;;;;;;5052435;28;20454;-61
2022/07/23 00:07:43;;;;;;;12.33;8.23;;;16.30;99.90;;;;;;5051641;28;20444;-61
2022/07/23 00:10:11;;;;;;;11.03;8.63;;;16.30;99.90;;;;;;5052491;28;20440;-60
2022/07/23 00:12:39;;;;;;;10.20;8.70;;;16.30;99.90;;;;;;5052345;28;20494;-61
2022/07/23 00:15:11;;;;;;;11.63;9.60;;;16.40;99.90;;;;;;5052836;28;20486;-61
2022/07/23 00:17:39;;;;;;;9.00;7.90;;;16.30;99.90;;;;;;5052455;28;20441;-61
2022/07/23 00:20:07;;;;;;;11.40;9.77;;;16.30;99.90;;;;;;5052346;28;20440;-61
2022/07/23 00:22:35;;;;;;;10.03;8.77;;;16.30;99.90;;;;;;5052875;28;20673;-61
2022/07/23 00:25:02;;;;;;;9.83;8.63;;;16.20;99.90;;;;;;5052888;28;21013;-61
2022/07/23 00:27:29;;;;;;;13.23;9.90;;;16.20;99.90;;;;;;5056352;28;20513;-61
2022/07/23 00:29:57;;;;;;;10.30;8.10;;;16.10;99.90;;;;;;5056165;28;20553;-61
2022/07/23 00:32:25;;;;;;;11.00;8.40;;;16.10;99.90;;;;;;5056362;28;20601;-61
2022/07/23 00:34:53;;;;;;;11.13;8.70;;;16.10;99.90;;;;;;5055707;28;20480;-60
2022/07/23 00:37:20;;;;;;;11.63;8.50;;;16.00;99.90;;;;;;5055753;28;20472;-61
2022/07/23 00:39:47;;;;;;;12.73;8.50;;;16.00;99.90;;;;;;5056164;28;20875;-61
2022/07/23 00:42:15;;;;;;;10.87;9.33;;;16.10;99.90;;;;;;5056164;28;20448;-61
2022/07/23 00:44:43;;;;;;;13.10;8.77;;;16.10;99.90;;;;;;5056329;28;20444;-61
2022/07/23 00:47:10;;;;;;;13.23;9.30;;;16.10;99.90;;;;;;5056041;28;20440;-61
2022/07/23 00:49:39;;;;;;;10.93;8.57;;;16.10;99.90;;;;;;5056433;28;20497;-61
2022/07/23 00:52:07;;;;;;;13.90;9.80;;;16.10;99.90;;;;;;5056379;28;20448;-61
2022/07/23 00:54:34;;;;;;;14.90;9.47;;;16.10;99.90;;;;;;5056078;28;20570;-61
2022/07/23 00:57:02;;;;;;;11.77;8.73;;;16.10;99.90;;;;;;5055922;28;20494;-61
2022/07/23 00:59:29;;;;;;;11.53;8.73;;;16.10;99.90;;;;;;5055879;28;20464;-61
2022/07/23 01:01:56;;;;;;;13.90;9.73;;;16.10;99.90;;;;;;5055628;28;20451;-61
2022/07/23 01:04:24;;;;;;;13.77;9.00;;;16.10;99.90;;;;;;5056411;28;20490;-61
2022/07/23 01:06:53;;;;;;;9.90;7.70;;;16.00;99.90;;;;;;5055840;28;20597;-60
2022/07/23 01:09:20;;;;;;;9.70;8.70;;;16.00;99.90;;;;;;5060360;28;20467;-61
2022/07/23 01:11:47;;;;;;;14.90;8.50;;;15.90;99.90;;;;;;5063215;28;20452;-61
2022/07/23 01:14:16;;;;;;;13.20;8.33;;;15.80;99.90;;;;;;5062433;28;20779;-61
2022/07/23 01:16:45;;;;;;;17.00;9.63;;;15.80;99.90;;;;;;5059274;28;20484;-61
2022/07/23 01:19:13;;;;;;;13.50;9.53;;;15.70;99.90;;;;;;5057463;28;20463;-61
2022/07/23 01:21:42;;;;;;;11.63;8.60;;;15.70;99.90;;;;;;5057417;28;20467;-61
2022/07/23 01:24:11;;;;;;;12.53;8.63;;;15.60;99.90;;;;;;5056603;28;20451;-61
2022/07/23 01:26:40;;;;;;;12.40;8.57;;;15.60;99.90;;;;;;5055447;28;20940;-61
2022/07/23 01:29:07;;;;;;;12.37;9.40;;;15.60;99.90;;;;;;5055298;28;20488;-61
2022/07/23 01:31:35;;;;;;;13.47;8.80;;;15.60;99.90;;;;;;5055615;28;20452;-62
2022/07/23 01:34:02;;;;;;;9.93;8.93;;;15.50;99.90;;;;;;5055542;28;20476;-62
2022/07/23 01:36:30;;;;;;;10.27;8.70;;;15.50;99.90;;;;;;5054515;28;20476;-61
2022/07/23 01:38:57;;;;;;;15.47;8.90;;;15.40;99.90;;;;;;5055502;28;20533;-61
2022/07/23 01:41:26;;;;;;;9.50;8.60;;;15.40;99.90;;;;;;5053931;28;20455;-62
2022/07/23 01:43:53;;;;;;;10.50;9.40;;;15.40;99.90;;;;;;5055634;28;20497;-61
2022/07/23 01:46:20;;;;;;;11.47;8.93;;;15.30;99.90;;;;;;5062042;28;20444;-61
2022/07/23 01:48:48;;;;;;;14.87;9.50;;;15.30;99.90;;;;;;5063390;28;20467;-61
2022/07/23 01:51:15;;;;;;;14.10;9.33;;;15.30;99.90;;;;;;5058945;28;20456;-61
2022/07/23 01:53:43;;;;;;;11.23;9.27;;;15.30;99.90;;;;;;5054779;28;20440;-60
2022/07/23 01:56:10;;;;;;;11.73;10.07;;;15.30;99.90;;;;;;5054685;28;20476;-61
2022/07/23 01:58:38;;;;;;;10.70;9.60;;;15.30;99.90;;;;;;5054842;28;20504;-61
2022/07/23 02:01:06;;;;;;;12.83;9.20;;;15.20;99.90;;;;;;5054721;28;20452;-61
2022/07/23 02:03:33;;;;;;;14.20;9.00;;;15.20;99.90;;;;;;5054932;28;20448;-61
2022/07/23 02:06:01;;;;;;;10.40;8.50;;;15.20;99.90;;;;;;5055067;28;20862;-61
2022/07/23 02:08:28;;;;;;;10.00;8.20;;;15.20;99.90;;;;;;5054663;28;20518;-61
2022/07/23 02:10:55;;;;;;;11.10;10.00;;;15.20;99.90;;;;;;5054597;28;20851;-61
2022/07/23 02:13:23;;;;;;;10.70;9.00;;;15.20;99.90;;;;;;5054549;28;20502;-61
2022/07/23 02:15:51;;;;;;;12.97;9.57;;;15.20;99.90;;;;;;5054760;28;20522;-61
2022/07/23 02:18:19;;;;;;;17.87;10.70;;;15.20;99.90;;;;;;5054667;28;20479;-61
2022/07/23 02:20:46;;;;;;;12.63;9.80;;;15.20;99.90;;;;;;5056907;28;20815;-60
2022/07/23 02:23:13;;;;;;;15.07;10.10;;;15.20;99.90;;;;;;5056006;28;20451;-60
2022/07/23 02:25:41;;;;;;;10.70;9.60;;;15.20;99.90;;;;;;5055869;28;20444;-61
2022/07/23 02:28:08;;;;;;;13.07;9.70;;;15.20;99.90;;;;;;5059863;28;20483;-60
2022/07/23 02:30:36;;;;;;;11.10;8.93;;;15.20;99.90;;;;;;5056657;28;20498;-60
2022/07/23 02:33:04;;;;;;;12.50;8.77;;;15.20;99.90;;;;;;5054423;28;20510;-60
2022/07/23 02:35:32;;;;;;;9.73;8.73;;;15.10;99.90;;;;;;5054213;28;20529;-60
2022/07/23 02:37:59;;;;;;;11.70;8.77;;;15.20;99.90;;;;;;5054638;28;20518;-60
2022/07/23 02:40:26;;;;;;;9.57;8.60;;;15.20;99.90;;;;;;5054391;28;20494;-61
2022/07/23 02:42:54;;;;;;;12.30;9.30;;;15.20;99.90;;;;;;5054236;28;20502;-60
2022/07/23 02:45:21;;;;;;;11.67;8.07;;;15.20;99.90;;;;;;5054086;28;20491;-61
2022/07/23 02:47:48;;;;;;;14.03;8.70;;;15.10;99.90;;;;;;5054150;28;20456;-60
2022/07/23 02:50:17;;;;;;;12.97;9.47;;;15.10;99.90;;;;;;5053185;28;20506;-61
2022/07/23 02:52:45;;;;;;;9.90;8.83;;;15.10;99.90;;;;;;5053955;28;20498;-61
2022/07/23 02:55:12;;;;;;;11.03;8.97;;;15.10;99.90;;;;;;5054142;28;20511;-60
2022/07/23 02:57:40;;;;;;;12.20;9.43;;;15.20;99.90;;;;;;5054428;28;20498;-61
2022/07/23 03:00:09;;;;;;;12.20;9.10;;;15.20;99.90;;;;;;5053846;28;20493;-61
2022/07/23 03:02:36;;;;;;;12.23;9.37;;;15.20;99.90;;;;;;5053856;28;20510;-60
2022/07/23 03:05:04;;;;;;;11.07;8.40;;;15.20;99.90;;;;;;5054227;28;20502;-61
2022/07/23 03:07:33;;;;;;;9.00;8.20;;;15.20;99.90;;;;;;5054049;28;21013;-60
2022/07/23 03:10:00;;;;;;;10.90;8.73;;;15.20;99.90;;;;;;5053875;28;20448;-60
2022/07/23 03:12:28;;;;;;;12.93;7.70;;;15.20;99.90;;;;;;5054094;28;20444;-60
2022/07/23 03:14:55;;;;;;;9.90;7.63;;;15.30;99.90;;;;;;5053328;28;20506;-61
2022/07/23 03:17:22;;;;;;;12.33;9.20;;;15.30;99.90;;;;;;5053587;28;20517;-60
2022/07/23 03:19:49;;;;;;;13.80;8.80;;;15.30;99.90;;;;;;5053438;28;20991;-60
2022/07/23 03:22:17;;;;;;;10.20;9.00;;;15.30;99.90;;;;;;5053352;28;20440;-61
2022/07/23 03:24:54;;;;;;;11.30;10.20;;;15.30;99.90;;;;;;5052977;28;20460;-62
2022/07/23 03:27:22;;;;;;;15.37;10.40;;;15.30;99.90;;;;;;5053602;28;20466;-61
2022/07/23 03:29:50;;;;;;;11.40;9.47;;;15.30;99.90;;;;;;5052585;28;21066;-61
2022/07/23 03:32:18;;;;;;;11.93;8.63;;;15.30;99.90;;;;;;5053115;28;20444;-61
2022/07/23 03:34:45;;;;;;;12.67;8.93;;;15.30;99.90;;;;;;5053123;28;20498;-61
2022/07/23 03:37:13;;;;;;;12.43;9.10;;;15.30;99.90;;;;;;5053433;28;20512;-60
2022/07/23 03:39:40;;;;;;;10.17;8.67;;;15.30;99.90;;;;;;5052898;28;20999;-62
2022/07/23 03:42:09;;;;;;;12.03;9.30;;;15.20;99.90;;;;;;5052997;28;20505;-61
2022/07/23 03:44:38;;;;;;;10.53;8.83;;;15.20;99.90;;;;;;5052742;28;20452;-61
2022/07/23 03:47:06;;;;;;;11.43;9.90;;;15.20;99.90;;;;;;5053217;28;20947;-62
2022/07/23 03:49:34;;;;;;;10.50;7.70;;;15.20;99.90;;;;;;5053207;28;20472;-60
2022/07/23 03:52:01;;;;;;;10.87;9.17;;;15.20;99.90;;;;;;5053340;28;20448;-61
2022/07/23 03:54:29;;;;;;;14.63;10.47;;;15.20;99.90;;;;;;5052755;28;20509;-63
2022/07/23 03:56:56;;;;;;;12.10;9.90;;;15.30;99.90;;;;;;5053205;28;20499;-61
2022/07/23 03:59:25;;;;;;;11.43;9.23;;;15.30;99.90;;;;;;5052727;28;20464;-61
2022/07/23 04:01:52;;;;;;;17.80;9.20;;;15.30;99.90;;;;;;5052910;28;20452;-61
2022/07/23 04:04:19;;;;;;;12.50;9.60;;;15.30;99.90;;;;;;5053307;28;20479;-61
2022/07/23 04:10:01;;;;;;;14.83;9.87;;;15.30;99.90;;;;;;5155359;27;20540;-61
2022/07/23 04:12:29;;;;;;;14.17;11.23;;;15.30;99.90;;;;;;5153139;27;21007;-62
2022/07/23 04:14:56;;;;;;;11.47;9.83;;;15.40;99.90;;;;;;5149918;27;20448;-62
2022/07/23 04:17:23;;;;;;;11.10;8.80;;;15.40;99.90;;;;;;5131687;27;20452;-62
2022/07/23 04:19:51;;;;;;;12.83;10.27;;;15.40;99.90;;;;;;5131965;27;20945;-61
2022/07/23 04:22:18;;;;;;;15.20;10.63;;;15.40;99.90;;;;;;5131697;27;20992;-62
2022/07/23 04:24:45;;;;;;;12.80;11.50;;;15.40;99.90;;;;;;5148149;27;20544;-62
2022/07/23 04:27:14;;;;;;;11.83;9.63;;;15.40;99.90;;;;;;5134386;27;20474;-62
2022/07/23 04:29:41;;;;;;;15.07;10.93;;;15.50;99.90;;;;;;5144401;27;20873;-60
2022/07/23 04:32:09;;;;;;;11.03;9.50;;;15.40;99.90;;;;;;5139240;27;20437;-61
2022/07/23 04:34:36;;;;;;;13.53;10.50;;;15.40;99.90;;;;;;5142796;27;20445;-62
2022/07/23 04:37:03;;;;;;;12.50;10.40;;;15.40;99.90;;;;;;5131447;28;20448;-61
2022/07/23 04:39:31;;;;;;;13.23;9.73;;;15.30;99.90;;;;;;5139384;27;20463;-60
2022/07/23 04:41:58;;;;;;;15.27;9.63;;;15.20;99.90;;;;;;5138220;27;20800;-61
2022/07/23 04:44:27;;;;;;;11.10;9.47;;;15.20;99.90;;;;;;5120697;28;20493;-62
2022/07/23 04:46:54;;;;;;;16.73;8.93;;;15.10;99.90;;;;;;5131717;27;20493;-62
2022/07/23 04:49:22;;;;;;;10.90;9.70;;;15.10;99.90;;;;;;5131003;27;20879;-62
2022/07/23 04:51:50;;;;;;;11.77;9.27;;;15.10;99.90;;;;;;5132209;27;20445;-61
2022/07/23 04:54:17;;;;;;;13.40;9.90;;;15.00;99.90;;;;;;5132804;27;20497;-63
2022/07/23 04:56:44;;;;;;;11.33;9.40;;;14.90;99.90;;;;;;5130492;28;20441;-62
2022/07/23 04:59:12;;;;;;;12.03;10.17;;;14.80;99.90;;;;;;5135034;28;20460;-61
2022/07/23 05:01:41;;;;;;;14.17;9.90;;;14.80;99.90;;;;;;5155910;27;21000;-61
2022/07/23 05:04:08;;;;;;;11.20;10.10;;;14.80;99.90;;;;;;5160175;27;20465;-60
2022/07/23 05:06:36;;;;;;;11.00;9.80;;;14.80;99.90;;;;;;5154522;27;20437;-62
2022/07/23 05:09:03;;;;;;;11.83;9.90;;;14.80;99.90;;;;;;5152280;27;20509;-62
2022/07/23 05:11:31;;;;;;;16.03;10.20;;;14.90;99.90;;;;;;5135007;27;20474;-62
2022/07/23 05:13:58;;;;;;;13.07;11.13;;;15.00;99.90;;;;;;5152710;27;20445;-62
2022/07/23 05:16:25;;;;;;;11.67;10.00;;;15.20;99.90;;;;;;5139955;27;20505;-61
2022/07/23 05:18:54;;;;;;;11.90;9.83;;;15.30;99.90;;;;;;5145888;27;20518;-61
2022/07/23 05:21:22;;;;;;;13.57;9.57;;;15.70;99.90;;;;;;5122046;28;20433;-61
2022/07/23 05:23:49;;;;;;;9.97;8.63;;;16.10;99.90;;;;;;5124960;27;20456;-61
2022/07/23 05:26:16;;;;;;;13.23;7.60;;;16.60;99.90;;;;;;5124757;28;20933;-61
2022/07/23 05:28:44;;;;;;;9.03;8.13;;;16.90;99.90;;;;;;5132113;27;20480;-62
2022/07/23 05:31:11;;;;;;;9.33;7.80;;;17.10;99.90;;;;;;5119623;27;20441;-61
2022/07/23 05:33:38;;;;;;;10.90;8.30;;;17.40;99.90;;;;;;5128249;27;20445;-61
2022/07/23 05:36:08;;;;;;;8.93;8.00;;;17.60;99.90;;;;;;5116765;28;20502;-61
2022/07/23 05:38:35;;;;;;;12.03;7.53;;;17.70;99.90;;;;;;5117206;28;20462;-61
2022/07/23 05:41:02;;;;;;;8.17;7.30;;;17.80;99.90;;;;;;5117499;27;20446;-61
2022/07/23 05:43:30;;;;;;;10.60;8.03;;;17.80;99.90;;;;;;5117516;28;20450;-61
2022/07/23 05:45:57;;;;;;;7.73;6.90;;;17.80;99.90;;;;;;5116395;28;20441;-61
2022/07/23 05:48:25;;;;;;;8.57;7.77;;;17.90;99.90;;;;;;5115922;28;20481;-62
2022/07/23 05:50:52;;;;;;;11.53;8.00;;;18.00;99.90;;;;;;5116109;28;20888;-61
2022/07/23 05:53:21;;;;;;;8.27;7.27;;;18.10;99.90;;;;;;5116720;28;20442;-61
2022/07/23 05:55:48;;;;;;;10.30;7.10;;;18.20;99.90;;;;;;5129240;27;20449;-61
2022/07/23 05:58:16;;;;;;;10.83;7.57;;;18.30;99.90;;;;;;5137001;27;20900;-61
2022/07/23 06:00:43;;;;;;;7.87;7.10;;;18.20;99.90;;;;;;5137224;27;20455;-60
2022/07/23 06:03:10;;;;;;;9.77;7.60;;;18.20;99.90;;;;;;5137446;27;20472;-61
2022/07/23 06:05:38;;;;;;;9.10;7.53;;;18.10;99.90;;;;;;5130551;27;20957;-60
2022/07/23 06:08:05;;;;;;;9.70;7.10;;;18.10;99.90;;;;;;5119080;27;20530;-61
2022/07/23 06:10:34;;;;;;;7.67;6.90;;;18.10;99.90;;;;;;5118427;28;20478;-61
2022/07/23 06:13:02;;;;;;;9.17;8.00;;;18.10;99.90;;;;;;5116567;28;20496;-60
2022/07/23 06:15:30;;;;;;;9.30;7.43;;;18.10;99.90;;;;;;5116683;28;20557;-61
2022/07/23 06:17:57;;;;;;;8.80;6.93;;;18.10;99.90;;;;;;5117898;28;20474;-61
2022/07/23 06:20:24;;;;;;;11.00;7.83;;;18.10;99.90;;;;;;5118721;27;20535;-61
2022/07/23 06:22:52;;;;;;;10.10;6.70;;;18.20;99.90;;;;;;5118022;28;20451;-60
2022/07/23 06:25:20;;;;;;;8.57;7.77;;;18.20;99.90;;;;;;5118153;28;20455;-61
2022/07/23 06:27:49;;;;;;;7.73;6.57;;;18.20;99.90;;;;;;5126889;27;20448;-61
2022/07/23 06:30:17;;;;;;;9.33;6.40;;;18.20;99.90;;;;;;5120978;28;20477;-61
2022/07/23 06:32:44;;;;;;;10.00;7.30;;;18.20;99.40;;;;;;5116620;28;20477;-61
2022/07/23 06:35:12;;;;;;;10.50;7.07;;;18.10;99.20;;;;;;5116900;28;20468;-61
2022/07/23 06:37:39;;;;;;;8.67;6.47;;;18.10;99.10;;;;;;5117261;27;20509;-61
2022/07/23 06:40:07;;;;;;;7.97;6.63;;;18.10;99.00;;;;;;5115512;27;20446;-62
2022/07/23 06:42:36;;;;;;;8.30;6.70;;;18.20;98.60;;;;;;5116864;27;20451;-61
2022/07/23 06:45:06;;;;;;;9.27;6.00;;;18.20;98.10;;;;;;5116604;27;20563;-62
2022/07/23 06:47:34;;;;;;;7.23;6.30;;;18.10;97.80;;;;;;5119055;28;20794;-62
2022/07/23 06:50:02;;;;;;;8.90;6.63;;;18.10;97.50;;;;;;5124130;28;20509;-62
2022/07/23 06:52:29;;;;;;;7.97;6.00;;;18.10;97.30;;;;;;5131779;28;20467;-60
2022/07/23 06:54:56;;;;;;;8.10;6.17;;;18.10;96.70;;;;;;5132757;28;20538;-61
2022/07/23 06:57:25;;;;;;;7.30;5.83;;;18.20;96.50;;;;;;5132963;28;20445;-61
2022/07/23 06:59:53;;;;;;;6.63;6.03;;;18.20;96.60;;;;;;5129790;28;20458;-61
2022/07/23 07:02:21;;;;;;;9.07;6.63;;;18.30;96.50;;;;;;5116717;28;20494;-61
2022/07/23 07:04:49;;;;;;;6.20;5.57;;;18.40;96.40;;;;;;5120745;28;20452;-61
2022/07/23 07:07:17;;;;;;;7.30;6.13;;;18.60;96.00;;;;;;5125320;28;20494;-61
2022/07/23 07:09:44;;;;;;;9.40;6.30;;;18.70;95.60;;;;;;5122201;28;20511;-61
2022/07/23 07:12:12;;;;;;;15.23;6.90;;;18.80;95.20;;;;;;5119779;28;20541;-61
2022/07/23 07:14:40;;;;;;;9.10;6.47;;;18.70;95.10;;;;;;5117548;28;20475;-62
2022/07/23 07:17:08;;;;;;;9.03;6.73;;;18.70;95.60;;;;;;5116488;28;20498;-60
2022/07/23 07:19:37;;;;;;;7.83;5.70;;;18.70;95.40;;;;;;5115107;28;20458;-60
2022/07/23 07:22:05;;;;;;;6.50;5.90;;;18.80;95.30;;;;;;5114461;28;20526;-61
2022/07/23 07:24:32;;;;;;;10.63;5.73;;;18.80;95.20;;;;;;5114777;28;20441;-62
2022/07/23 07:26:59;;;;;;;6.37;5.00;;;18.80;94.90;;;;;;5124716;28;20444;-61
2022/07/23 07:29:28;;;;;;;5.00;4.47;;;18.80;94.90;;;;;;5128247;28;20488;-61
2022/07/23 07:31:55;;;;;;;7.50;5.30;;;18.90;93.80;;;;;;5125479;28;20449;-60
2022/07/23 07:34:22;;;;;;;5.20;4.70;;;19.00;93.30;;;;;;5127087;28;20441;-61
2022/07/23 07:36:51;;;;;;;6.33;4.67;;;19.20;92.60;;;;;;5124964;28;20438;-60
2022/07/23 07:39:18;;;;;;;6.27;3.90;;;19.40;92.20;;;;;;5123864;28;20457;-61
2022/07/23 07:41:46;;;;;;;6.40;3.77;;;19.60;91.10;;;;;;5121696;28;20449;-61
2022/07/23 07:44:13;;;;;;;5.03;3.63;;;19.70;88.70;;;;;;5116383;28;20445;-63
2022/07/23 07:46:40;;;;;;;4.23;3.40;;;19.70;87.30;;;;;;5114403;28;20514;-61
2022/07/23 07:49:07;;;;;;;3.87;3.20;;;19.80;86.00;;;;;;5114095;28;20593;-62
2022/07/23 07:51:35;;;;;;;3.40;3.10;;;19.80;85.20;;;;;;5113342;28;20445;-62
2022/07/23 07:54:04;;;;;;;5.30;3.03;;;19.70;84.70;;;;;;5113457;28;20494;-61
2022/07/23 07:56:31;;;;;;;3.83;3.30;;;19.50;84.80;;;;;;5113672;28;20484;-62
2022/07/23 07:58:59;;;;;;;5.80;3.40;;;19.50;85.00;;;;;;5113560;28;20518;-61
2022/07/23 08:01:27;;;;;;;6.17;3.80;;;19.80;84.50;;;;;;5113751;28;20442;-61
2022/07/23 08:03:54;;;;;;;4.60;4.10;;;20.20;82.60;;;;;;5113464;28;20513;-62
2022/07/23 08:06:21;;;;;;;4.03;3.00;;;20.40;80.80;;;;;;5113296;28;20486;-62
2022/07/23 08:08:49;;;;;;;4.17;2.53;;;20.50;80.00;;;;;;5112854;28;20534;-61
2022/07/23 08:11:18;;;;;;;3.87;3.20;;;20.30;78.10;;;;;;5113506;28;20938;-61
2022/07/23 08:13:45;;;;;;;3.83;3.30;;;20.00;78.10;;;;;;5113650;28;20477;-61
2022/07/23 08:16:12;;;;;;;3.63;3.17;;;19.80;80.10;;;;;;5113214;28;20449;-61
2022/07/23 08:18:40;;;;;;;4.10;3.50;;;19.70;81.60;;;;;;5113097;28;20490;-61
2022/07/23 08:21:07;;;;;;;3.87;2.70;;;19.80;82.10;;;;;;5113381;28;20441;-61
2022/07/23 08:23:35;;;;;;;4.17;2.80;;;20.00;81.50;;;;;;5113690;28;20445;-62
2022/07/23 08:26:02;;;;;;;3.30;2.83;;;20.40;79.20;;;;;;5113774;28;20485;-61
2022/07/23 08:28:32;;;;;;;4.17;2.80;;;20.80;76.80;;;;;;5113186;28;20878;-61
2022/07/23 08:31:00;;;;;;;5.47;2.43;;;20.80;75.20;;;;;;5116162;28;20461;-61
2022/07/23 08:33:28;;;;;;;3.00;2.70;;;20.80;75.00;;;;;;5116942;28;20446;-60
2022/07/23 08:35:56;;;;;;;2.80;2.33;;;20.70;74.80;;;;;;5117197;28;20450;-61
2022/07/23 08:38:24;;;;;;;3.87;2.53;;;20.80;73.80;;;;;;5118446;28;20470;-60
2022/07/23 08:40:54;;;;;;;2.73;2.20;;;21.00;72.20;;;;;;5113661;28;20439;-61
2022/07/23 08:43:23;;;;;;;3.70;3.10;;;21.10;69.80;;;;;;5113987;28;20469;-61
2022/07/23 08:45:56;;;;;;;3.43;2.70;;;21.00;69.60;;;;;;5116212;28;20450;-59
2022/07/23 08:48:25;;;;;;;5.00;2.63;;;20.80;69.70;;;;;;5117120;28;20834;-60
2022/07/23 08:50:54;;;;;;;4.53;2.40;;;20.80;70.10;;;;;;5113955;28;20474;-61
2022/07/23 08:53:23;;;;;;;3.00;2.43;;;20.70;69.70;;;;;;5113815;28;20446;-61
2022/07/23 08:55:52;;;;;;;6.33;2.73;;;20.80;69.20;;;;;;5115147;28;20538;-61
2022/07/23 08:58:20;;;;;;;6.17;3.27;;;20.90;68.30;;;;;;5116638;28;20458;-61
2022/07/23 09:00:49;;;;;;;3.10;2.60;;;21.20;67.10;;;;;;5117010;28;20434;-60
2022/07/23 09:03:19;;;;;;;2.60;2.30;;;21.30;65.00;;;;;;5116964;28;20487;-61
2022/07/23 09:05:47;;;;;;;2.27;2.03;;;21.60;64.20;;;;;;5116346;28;20431;-60
2022/07/23 09:08:17;;;;;;;4.23;2.10;;;21.80;62.20;;;;;;5115841;28;20488;-60
2022/07/23 09:10:50;;;;;;;5.03;2.13;;;21.90;60.10;;;;;;5115812;28;20491;-61
2022/07/23 09:13:30;;;;;;;3.97;2.47;;;22.00;59.10;;;;;;5116431;28;20499;-61
2022/07/23 09:15:59;;;;;;;2.40;1.87;;;22.20;58.40;;;;;;5116048;28;20492;-61
2022/07/23 09:18:32;;;;;;;3.27;2.33;;;22.40;57.60;;;;;;5115918;28;20473;-60
2022/07/23 09:21:18;;;;;;;4.17;2.00;;;22.60;57.30;;;;;;5115871;28;20485;-61
2022/07/23 09:23:47;;;;;;;3.60;2.30;;;22.50;57.00;;;;;;5117187;28;20432;-60
2022/07/23 09:26:26;;;;;;;2.83;2.20;;;22.20;57.30;;;;;;5116549;28;20479;-61
2022/07/23 09:28:56;;;;;;;6.60;2.50;;;21.90;57.90;;;;;;5117164;28;20804;-61
2022/07/23 09:31:25;;;;;;;2.57;2.37;;;21.60;58.50;;;;;;5117054;28;20459;-61
2022/07/23 09:34:08;;;;;;;4.73;2.33;;;21.30;59.90;;;;;;5117438;28;20478;-61
2022/07/23 09:36:35;;;;;;;3.13;2.43;;;21.20;60.30;;;;;;5117123;28;20477;-61
2022/07/23 09:39:03;;;;;;;6.73;2.87;;;21.30;60.70;;;;;;5116198;28;20958;-60
2022/07/23 09:41:40;;;;;;;3.30;2.50;;;21.70;60.20;;;;;;5116900;28;20496;-61
2022/07/23 09:44:09;;;;;;;3.50;2.23;;;22.10;58.70;;;;;;5116472;28;20476;-61
2022/07/23 09:46:39;;;;;;;3.80;2.40;;;22.30;58.00;;;;;;5116373;28;20478;-60
2022/07/23 09:49:15;;;;;;;5.70;2.80;;;22.20;57.70;;;;;;5116202;28;20525;-61
2022/07/23 09:51:51;;;;;;;2.73;2.53;;;22.10;58.00;;;;;;5116327;28;20466;-61
2022/07/23 09:54:28;;;;;;;2.90;2.70;;;22.20;58.20;;;;;;5116359;28;20939;-60
2022/07/23 09:56:56;;;;;;;7.17;2.70;;;22.20;57.80;;;;;;5116256;28;20789;-61
2022/07/23 09:59:26;;;;;;;4.20;2.40;;;22.00;57.80;;;;;;5116109;28;20471;-60
2022/07/23 10:01:56;;;;;;;4.27;2.87;;;21.70;58.10;;;;;;5115753;28;20990;-61
2022/07/23 10:04:26;;;;;;;4.00;2.60;;;21.50;58.30;;;;;;5115523;28;20940;-61
2022/07/23 10:06:55;;;;;;;3.50;2.40;;;21.50;58.40;;;;;;5115587;28;20451;-60
2022/07/23 10:09:28;;;;;;;3.67;2.60;;;21.60;58.00;;;;;;5115741;28;20483;-61
2022/07/23 10:14:47;;;;;;;2.37;2.10;;;21.60;57.30;;;;;;5098455;28;20424;-60
2022/07/23 10:17:15;;;;;;;3.23;2.53;;;21.60;57.40;;;;;;5116733;28;20924;-61
2022/07/23 10:19:44;;;;;;;3.73;2.37;;;21.60;57.10;;;;;;5116043;28;20495;-61
2022/07/23 10:22:14;;;;;;;3.03;2.83;;;21.80;56.50;;;;;;5115851;28;20578;-61
2022/07/23 10:24:53;;;;;;;3.07;2.30;;;22.10;55.90;;;;;;5115273;28;20549;-61
2022/07/23 10:27:44;;;;;;;3.03;2.60;;;22.30;55.30;;;;;;5118100;28;20473;-61
2022/07/23 10:30:17;;;;;;;6.57;2.60;;;22.30;54.60;;;;;;5121355;28;20464;-60
2022/07/23 10:32:52;;;;;;;5.20;2.70;;;22.10;54.90;;;;;;5119852;28;20498;-61
2022/07/23 10:35:30;;;;;;;3.00;2.80;;;22.00;55.20;;;;;;5117439;28;20424;-61
2022/07/23 10:38:07;;;;;;;4.30;3.30;;;21.80;55.30;;;;;;5114955;28;20524;-62
2022/07/23 10:40:35;;;;;;;3.23;2.17;;;21.70;55.80;;;;;;5115110;28;20851;-61
2022/07/23 10:43:02;;;;;;;3.20;2.90;;;21.60;56.20;;;;;;5114893;28;20446;-61
2022/07/23 10:45:32;;;;;;;3.03;2.83;;;21.60;56.50;;;;;;5114265;28;20565;-60
2022/07/23 10:48:15;;;;;;;2.97;2.67;;;21.60;56.60;;;;;;5114551;28;20460;-60
2022/07/23 10:50:44;;;;;;;5.30;2.60;;;21.80;56.40;;;;;;5114326;28;20509;-61
2022/07/23 10:53:18;;;;;;;3.60;2.43;;;22.00;56.10;;;;;;5114102;28;20455;-60
2022/07/23 10:55:51;;;;;;;3.63;2.13;;;22.40;55.40;;;;;;5114284;28;20848;-61
2022/07/23 10:58:48;;;;;;;3.70;2.30;;;22.80;53.60;;;;;;5113942;28;20467;-61
2022/07/23 11:01:36;;;;;;;2.60;2.40;;;23.20;52.50;;;;;;5114340;28;20454;-61
2022/07/23 11:07:06;;;;;;;4.27;2.40;;;23.60;51.10;;;;;;5073034;28;20469;-59
2022/07/23 11:09:42;;;;;;;2.77;2.57;;;23.60;50.80;;;;;;5070227;28;20578;-60
2022/07/23 11:12:36;;;;;;;3.13;2.70;;;23.30;50.80;;;;;;5073791;28;20426;-58
2022/07/23 11:15:09;;;;;;;2.80;2.40;;;23.00;51.30;;;;;;5073516;28;20463;-59
2022/07/23 11:17:38;;;;;;;2.20;2.00;;;22.80;51.40;;;;;;5073597;28;20898;-59
2022/07/23 11:20:20;;;;;;;3.00;2.07;;;22.80;51.40;;;;;;5073563;28;20476;-60
2022/07/23 11:22:50;;;;;;;3.47;2.60;;;23.10;51.20;;;;;;5073735;28;20445;-58
2022/07/23 11:25:34;;;;;;;2.07;1.87;;;23.30;50.70;;;;;;5073513;28;20467;-58
2022/07/23 11:28:14;;;;;;;3.43;2.33;;;23.30;50.40;;;;;;5073773;28;20489;-60
2022/07/23 11:30:43;;;;;;;2.20;2.00;;;23.30;50.10;;;;;;5073199;28;20466;-58
2022/07/23 11:33:19;;;;;;;2.87;1.97;;;23.30;50.10;;;;;;5073516;28;20449;-58
2022/07/23 11:35:49;;;;;;;2.60;1.70;;;23.40;49.70;;;;;;5073613;28;20467;-60
2022/07/23 11:38:19;;;;;;;2.03;1.60;;;23.70;49.30;;;;;;5073141;28;20428;-60
2022/07/23 11:40:50;;;;;;;3.50;1.67;;;23.80;48.60;;;;;;5072976;28;20529;-60
2022/07/23 11:43:19;;;;;;;3.17;1.80;;;24.10;48.60;;;;;;5073663;28;20432;-59
2022/07/23 11:45:47;;;;;;;3.53;1.67;;;24.20;48.00;;;;;;5073383;28;20474;-59
2022/07/23 11:48:19;;;;;;;3.83;1.67;;;23.90;47.80;;;;;;5074245;28;20442;-59
2022/07/23 11:50:46;;;;;;;1.77;1.67;;;23.50;48.50;;;;;;5075843;28;20479;-59
2022/07/23 11:53:14;;;;;;;1.77;1.67;;;23.30;48.90;;;;;;5075072;28;20512;-60
2022/07/23 11:55:42;;;;;;;2.60;1.80;;;23.20;49.30;;;;;;5074018;28;21003;-60
2022/07/23 11:58:10;;;;;;;2.47;1.53;;;23.30;49.20;;;;;;5071284;28;20970;-60
2022/07/23 12:00:42;;;;;;;2.30;1.67;;;23.50;48.60;;;;;;5054276;28;20525;-60
2022/07/23 12:03:10;;;;;;;3.50;1.37;;;23.90;48.00;;;;;;5053848;28;20433;-60
2022/07/23 12:05:39;;;;;;;2.37;1.57;;;24.60;47.10;;;;;;5053265;28;20484;-60
2022/07/23 12:08:08;;;;;;;2.27;1.50;;;25.40;45.80;;;;;;5053798;28;20455;-60
2022/07/23 12:10:38;;;;;;;2.33;1.43;;;25.90;44.50;;;;;;5071498;28;20471;-60
2022/07/23 12:13:10;;;;;;;2.50;1.37;;;26.30;43.50;;;;;;5074878;28;20558;-61
2022/07/23 12:15:42;;;;;;;1.80;1.50;;;26.60;42.70;;;;;;5073552;28;20469;-59
2022/07/23 12:18:11;;;;;;;1.90;1.17;;;26.70;42.20;;;;;;5074162;28;20419;-60
2022/07/23 12:20:41;;;;;;;3.67;1.90;;;26.60;42.20;;;;;;5073367;28;20840;-59
2022/07/23 12:23:10;;;;;;;1.50;1.40;;;26.70;42.10;;;;;;5054345;28;20828;-61
2022/07/23 12:25:39;;;;;;;3.53;1.20;;;26.90;41.80;;;;;;5055748;28;20465;-58
2022/07/23 12:28:09;;;;;;;1.73;1.27;;;27.10;41.00;;;;;;5055407;28;20457;-59
2022/07/23 12:30:41;;;;;;;5.60;1.27;;;27.30;40.70;;;;;;5055132;28;20525;-59
2022/07/23 12:33:11;;;;;;;5.73;1.37;;;27.60;40.30;;;;;;5068569;28;20524;-60
2022/07/23 12:35:40;;;;;;;2.10;1.17;;;27.90;39.80;;;;;;5076667;28;20460;-60
2022/07/23 12:38:09;;;;;;;2.90;1.17;;;27.50;39.70;;;;;;5076626;28;20469;-58
2022/07/23 12:40:43;;;;;;;2.30;1.70;;;26.60;41.00;;;;;;5076634;28;21002;-59
2022/07/23 12:43:12;;;;;;;2.37;1.20;;;25.90;42.50;;;;;;5077036;28;20436;-59
2022/07/23 12:45:50;;;;;;;1.80;1.30;;;25.50;43.20;;;;;;5078636;28;20473;-59
2022/07/23 12:48:22;;;;;;;1.97;1.23;;;25.00;43.90;;;;;;5078847;28;20461;-60
2022/07/23 12:50:56;;;;;;;3.37;1.40;;;24.60;44.50;;;;;;5072066;28;20478;-59
2022/07/23 12:53:25;;;;;;;1.83;1.23;;;24.40;45.00;;;;;;5062927;28;20447;-59
2022/07/23 12:56:00;;;;;;;1.97;1.30;;;24.30;45.20;;;;;;5063306;28;20464;-60
2022/07/23 12:58:27;;;;;;;1.47;1.07;;;24.10;45.40;;;;;;5060253;28;20883;-60
2022/07/23 13:01:04;;;;;;;3.97;1.30;;;24.00;45.60;;;;;;5056547;28;20625;-59